Time;durP1;ratioP1;P1;durP2;ratioP2;P2;SDS_P1;SDS_P2;PMS_P1;PMS_P2;Temp;Humidity;BMP_temperature;BMP_pressure;BME280_temperature;BME280_humidity;BME280_pressure;Samples;Min_cycle;Max_cycle;Signal;HPM_P1;HPM_P2
2022/11/09 00:00:52;;;;;;;5.18;2.80;;;;;;;11.84;60.37;96360.94;6232669;23;20025;-82
2022/11/09 00:03:30;;;;;;;4.15;3.08;;;;;;;11.85;60.46;96362.56;6232831;23;20031;-82
2022/11/09 00:09:00;;;;;;;4.57;3.45;;;;;;;11.86;60.33;96358.94;6230785;23;20031;-82
2022/11/09 00:11:51;;;;;;;7.07;3.65;;;;;;;11.88;60.13;96362.22;6232576;23;20020;-82
2022/11/09 00:17:39;;;;;;;5.93;2.70;;;;;;;11.90;60.16;96364.63;6233375;23;20020;-82
2022/11/09 00:20:40;;;;;;;3.78;3.33;;;;;;;11.89;60.24;96358.56;6235692;23;20032;-82
2022/11/09 00:23:20;;;;;;;3.95;3.33;;;;;;;11.86;60.13;96350.31;6234234;23;20025;-82
2022/11/09 00:26:05;;;;;;;3.83;3.03;;;;;;;11.82;60.27;96349.88;6235405;23;20036;-83
2022/11/09 00:28:49;;;;;;;5.10;3.50;;;;;;;11.79;60.12;96352.91;6235741;23;20020;-82
2022/11/09 00:31:27;;;;;;;4.38;2.95;;;;;;;11.79;60.51;96358.13;6242425;22;20008;-83
2022/11/09 00:37:28;;;;;;;4.22;2.47;;;;;;;11.78;60.47;96361.72;6238050;23;20472;-82
2022/11/09 00:43:25;;;;;;;3.90;2.35;;;;;;;11.79;60.24;96354.72;6235048;23;20021;-82
2022/11/09 00:46:06;;;;;;;3.95;2.55;;;;;;;11.79;60.29;96360.75;6235838;23;20020;-82
2022/11/09 00:48:48;;;;;;;4.00;2.47;;;;;;;11.78;60.16;96366.94;6235209;23;20090;-82
2022/11/09 00:51:36;;;;;;;3.80;2.10;;;;;;;11.81;60.15;96366.56;6236458;23;20051;-83
2022/11/09 00:54:35;;;;;;;3.20;2.42;;;;;;;11.82;59.86;96349.88;6235993;23;20024;-83
2022/11/09 00:57:46;;;;;;;3.13;2.20;;;;;;;11.85;59.93;96361.75;6234267;23;20100;-82
2022/11/09 01:00:51;;;;;;;5.13;2.60;;;;;;;11.85;59.95;96352.13;6235486;23;20021;-82
2022/11/09 01:03:38;;;;;;;2.42;2.22;;;;;;;11.86;59.73;96348.50;6235786;23;20040;-83
2022/11/09 01:06:21;;;;;;;3.50;2.53;;;;;;;11.87;59.61;96344.91;6235788;23;20020;-82
2022/11/09 01:09:04;;;;;;;4.28;2.55;;;;;;;11.89;59.43;96342.91;6236527;23;20091;-82
2022/11/09 01:11:40;;;;;;;6.38;2.40;;;;;;;11.89;59.34;96344.72;6236111;23;20021;-82
2022/11/09 01:14:20;;;;;;;3.78;2.35;;;;;;;11.89;59.28;96352.56;6236458;23;20472;-82
2022/11/09 01:16:59;;;;;;;2.92;2.50;;;;;;;11.89;59.26;96355.16;6235308;23;20021;-82
2022/11/09 01:19:40;;;;;;;2.90;1.95;;;;;;;11.91;59.34;96346.13;6236144;23;20021;-82
2022/11/09 01:22:35;;;;;;;3.58;1.90;;;;;;;11.93;58.69;96346.72;6236605;23;20021;-82
2022/11/09 01:25:28;;;;;;;5.57;1.98;;;;;;;11.95;58.78;96343.94;6233672;23;20031;-82
2022/11/09 01:28:04;;;;;;;2.97;2.10;;;;;;;11.97;58.62;96346.34;6235624;23;20055;-82
2022/11/09 01:33:41;;;;;;;2.90;2.30;;;;;;;12.00;58.28;96348.56;6236986;23;20012;-83
2022/11/09 01:36:38;;;;;;;3.78;2.72;;;;;;;12.01;58.30;96358.03;6235992;23;20457;-82
2022/11/09 01:39:18;;;;;;;6.90;2.97;;;;;;;12.00;58.27;96349.38;6237007;23;20024;-82
2022/11/09 01:41:57;;;;;;;4.47;2.42;;;;;;;11.98;58.71;96353.97;6243289;22;20035;-82
2022/11/09 01:45:22;;;;;;;2.90;2.58;;;;;;;11.98;58.70;96345.34;6243306;22;20055;-83
2022/11/09 01:48:06;;;;;;;3.15;2.55;;;;;;;11.94;58.91;96334.50;6241975;23;20020;-84
2022/11/09 01:51:03;;;;;;;4.85;3.10;;;;;;;11.93;59.11;96344.13;6236289;23;20025;-82
2022/11/09 01:53:50;;;;;;;4.95;3.03;;;;;;;11.93;59.06;96338.88;6235724;23;20017;-82
2022/11/09 01:56:44;;;;;;;5.03;2.72;;;;;;;11.93;58.83;96346.72;6235542;23;20020;-82
2022/11/09 01:59:33;;;;;;;6.57;2.97;;;;;;;11.92;59.02;96347.75;6236631;23;20027;-82
2022/11/09 02:02:33;;;;;;;8.35;3.08;;;;;;;11.92;59.15;96341.72;6237014;23;20020;-82
2022/11/09 02:05:53;;;;;;;3.47;2.80;;;;;;;11.89;59.27;96342.91;6237894;23;20020;-82
2022/11/09 02:08:44;;;;;;;4.03;3.03;;;;;;;11.85;59.51;96344.28;6236613;23;20021;-82
2022/11/09 02:14:33;;;;;;;5.85;2.58;;;;;;;11.86;59.56;96332.81;6236263;23;20028;-82
2022/11/09 02:17:15;;;;;;;4.45;2.47;;;;;;;11.84;59.52;96332.19;6236095;23;20020;-82
2022/11/09 02:20:04;;;;;;;4.80;2.97;;;;;;;11.84;59.74;96334.81;6235909;23;20008;-82
2022/11/09 02:23:02;;;;;;;3.75;2.90;;;;;;;11.82;59.42;96326.38;6235774;23;20016;-82
2022/11/09 02:28:53;;;;;;;4.78;3.05;;;;;;;11.78;59.91;96319.13;6235445;23;20026;-82
2022/11/09 02:31:34;;;;;;;5.05;3.17;;;;;;;11.72;60.00;96316.28;6234911;23;20047;-82
2022/11/09 02:34:20;;;;;;;5.72;3.38;;;;;;;11.70;60.17;96312.28;6234943;23;20016;-82
2022/11/09 02:37:30;;;;;;;7.80;2.88;;;;;;;11.65;60.35;96304.19;6235604;23;20095;-82
2022/11/09 02:40:20;;;;;;;8.02;3.00;;;;;;;11.63;60.38;96311.41;6235534;23;20024;-82
2022/11/09 02:42:54;;;;;;;5.70;2.78;;;;;;;11.59;60.44;96320.63;6234274;23;20020;-82
2022/11/09 02:45:32;;;;;;;4.20;3.00;;;;;;;11.55;60.66;96305.38;6235283;23;20067;-82
2022/11/09 02:48:19;;;;;;;3.97;3.25;;;;;;;11.53;60.75;96311.78;6234214;23;20024;-82
2022/11/09 02:51:18;;;;;;;5.35;4.22;;;;;;;11.52;60.88;96313.59;6234433;23;20040;-82
2022/11/09 02:54:23;;;;;;;7.22;3.45;;;;;;;11.54;60.87;96313.38;6234719;23;20020;-82
2022/11/09 02:57:07;;;;;;;5.30;3.38;;;;;;;11.52;60.98;96303.16;6234521;23;20016;-82
2022/11/09 02:59:48;;;;;;;6.15;3.58;;;;;;;11.49;60.96;96303.53;6233595;23;20048;-82
2022/11/09 03:05:49;;;;;;;4.28;3.38;;;;;;;11.46;61.19;96309.16;6232998;23;20047;-82
2022/11/09 03:08:18;;;;;;;6.93;3.72;;;;;;;11.44;61.34;96307.75;6216291;22;20017;-77
2022/11/09 03:10:46;;;;;;;7.43;3.38;;;;;;;11.43;61.38;96319.97;6214237;23;20024;-78
2022/11/09 03:13:14;;;;;;;5.15;3.42;;;;;;;11.42;61.59;96323.59;6214300;23;20101;-77
2022/11/09 03:15:42;;;;;;;4.57;3.65;;;;;;;11.42;61.69;96326.22;6214129;23;20054;-77
2022/11/09 03:18:10;;;;;;;3.78;3.28;;;;;;;11.41;61.76;96319.34;6214162;23;20021;-77
2022/11/09 03:20:37;;;;;;;5.63;3.53;;;;;;;11.40;61.81;96322.97;6214357;23;20024;-77
2022/11/09 03:23:05;;;;;;;6.55;3.22;;;;;;;11.39;61.86;96324.00;6214058;23;20031;-77
2022/11/09 03:25:32;;;;;;;6.05;3.45;;;;;;;11.38;61.93;96334.63;6214527;23;20075;-77
2022/11/09 03:28:01;;;;;;;6.25;3.47;;;;;;;11.38;62.21;96327.59;6213694;23;20024;-77
2022/11/09 03:30:31;;;;;;;6.97;4.05;;;;;;;11.41;62.23;96327.19;6214688;23;20025;-78
2022/11/09 03:32:59;;;;;;;7.38;4.18;;;;;;;11.42;62.23;96333.25;6214468;23;20352;-77
2022/11/09 03:35:27;;;;;;;4.97;3.70;;;;;;;11.44;62.13;96333.84;6214269;23;20021;-77
2022/11/09 03:37:54;;;;;;;5.10;3.50;;;;;;;11.44;62.24;96328.63;6214129;23;20239;-77
2022/11/09 03:40:22;;;;;;;5.22;3.47;;;;;;;11.45;62.26;96331.03;6214747;23;20021;-77
2022/11/09 03:42:49;;;;;;;5.72;3.42;;;;;;;11.46;62.24;96329.25;6214370;23;20021;-77
2022/11/09 03:45:17;;;;;;;6.65;3.30;;;;;;;11.48;62.17;96333.28;6214023;23;20028;-77
2022/11/09 03:47:47;;;;;;;4.30;3.17;;;;;;;11.51;62.25;96334.69;6214062;23;20024;-77
2022/11/09 03:50:17;;;;;;;4.65;3.60;;;;;;;11.53;62.10;96333.50;6214432;23;20342;-77
2022/11/09 03:52:45;;;;;;;3.65;3.10;;;;;;;11.54;62.06;96334.28;6215205;23;20070;-77
2022/11/09 03:55:14;;;;;;;4.82;3.65;;;;;;;11.57;62.25;96330.47;6216296;23;20620;-78
2022/11/09 03:57:44;;;;;;;4.80;3.55;;;;;;;11.60;62.08;96335.31;6216317;23;20025;-78
2022/11/09 04:00:14;;;;;;;4.50;3.40;;;;;;;11.61;62.07;96336.94;6216694;23;20107;-78
2022/11/09 04:02:42;;;;;;;5.63;3.53;;;;;;;11.63;62.21;96337.53;6216458;23;20025;-78
2022/11/09 04:05:11;;;;;;;3.53;3.08;;;;;;;11.68;62.20;96343.00;6216478;23;20017;-77
2022/11/09 04:07:39;;;;;;;6.03;3.38;;;;;;;11.71;62.04;96355.66;6215963;23;20020;-77
2022/11/09 04:10:09;;;;;;;3.60;3.10;;;;;;;11.73;62.00;96351.06;6216230;23;20048;-77
2022/11/09 04:12:36;;;;;;;5.05;3.22;;;;;;;11.76;62.11;96353.28;6216378;23;20352;-78
2022/11/09 04:15:04;;;;;;;6.45;3.10;;;;;;;11.79;62.05;96358.13;6216083;23;20021;-77
2022/11/09 04:17:32;;;;;;;4.22;3.20;;;;;;;11.82;62.10;96368.19;6216172;23;20040;-77
2022/11/09 04:19:59;;;;;;;4.13;2.90;;;;;;;11.86;62.08;96384.28;6215619;23;20468;-77
2022/11/09 04:22:28;;;;;;;3.95;2.88;;;;;;;11.91;62.37;96392.38;6215998;23;20031;-77
2022/11/09 04:24:56;;;;;;;5.03;3.25;;;;;;;11.95;62.73;96398.81;6215900;23;20023;-77
2022/11/09 04:27:23;;;;;;;4.47;3.00;;;;;;;11.99;63.44;96400.06;6216059;23;20048;-77
2022/11/09 04:29:51;;;;;;;4.03;3.22;;;;;;;12.04;63.13;96412.53;6215275;23;20581;-77
2022/11/09 04:32:18;;;;;;;4.72;3.60;;;;;;;12.07;63.42;96404.28;6215833;23;20103;-77
2022/11/09 04:34:46;;;;;;;3.60;3.30;;;;;;;12.09;63.22;96407.50;6216312;23;20021;-77
2022/11/09 04:37:14;;;;;;;5.13;3.53;;;;;;;12.10;62.58;96412.56;6216084;23;20356;-77
2022/11/09 04:39:42;;;;;;;4.25;2.80;;;;;;;12.10;62.53;96417.00;6215918;23;20333;-76
2022/11/09 04:42:10;;;;;;;5.75;3.10;;;;;;;12.12;62.63;96417.59;6215417;23;20025;-76
2022/11/09 04:44:37;;;;;;;5.00;3.33;;;;;;;12.13;63.09;96408.75;6215134;23;20063;-76
2022/11/09 04:47:05;;;;;;;4.38;3.50;;;;;;;12.15;63.00;96412.75;6215815;23;20027;-76
2022/11/09 04:49:33;;;;;;;5.32;3.55;;;;;;;12.18;63.38;96413.38;6215013;23;20020;-76
2022/11/09 04:52:00;;;;;;;7.47;4.05;;;;;;;12.18;63.02;96421.22;6213022;23;20031;-76
2022/11/09 04:54:28;;;;;;;9.02;4.20;;;;;;;12.19;62.99;96423.66;6215062;23;20491;-76
2022/11/09 04:56:56;;;;;;;9.18;3.55;;;;;;;12.21;63.33;96439.94;6215330;23;20031;-76
2022/11/09 04:59:24;;;;;;;6.97;3.92;;;;;;;12.22;63.95;96425.06;6215214;23;20023;-75
2022/11/09 05:01:52;;;;;;;8.52;4.43;;;;;;;12.22;63.14;96436.31;6215910;23;20020;-77
2022/11/09 05:04:19;;;;;;;7.30;3.63;;;;;;;12.21;63.22;96429.50;6214664;23;20033;-76
2022/11/09 05:06:47;;;;;;;5.78;4.05;;;;;;;12.23;63.32;96432.72;6215443;23;20020;-75
2022/11/09 05:09:14;;;;;;;8.10;4.15;;;;;;;12.24;63.32;96433.53;6214653;23;20460;-76
2022/11/09 05:11:42;;;;;;;5.82;4.05;;;;;;;12.25;63.57;96453.44;6215284;23;20025;-76
2022/11/09 05:14:11;;;;;;;5.35;3.65;;;;;;;12.26;64.31;96458.47;6215098;23;20499;-76
2022/11/09 05:16:38;;;;;;;4.90;3.70;;;;;;;12.29;64.39;96463.31;6215458;23;20025;-76
2022/11/09 05:19:06;;;;;;;3.65;3.10;;;;;;;12.30;64.14;96458.91;6215235;23;20020;-76
2022/11/09 05:21:33;;;;;;;3.63;2.85;;;;;;;12.31;64.56;96458.72;6215252;23;20028;-76
2022/11/09 05:24:01;;;;;;;3.47;2.72;;;;;;;12.32;64.51;96467.34;6214487;23;20055;-79
2022/11/09 05:26:31;;;;;;;4.18;2.80;;;;;;;12.32;65.50;96465.53;6215203;23;20107;-74
2022/11/09 05:28:58;;;;;;;6.72;3.30;;;;;;;12.33;65.52;96464.56;6214973;23;20352;-73
2022/11/09 05:31:28;;;;;;;5.15;3.20;;;;;;;12.34;65.69;96463.53;6214535;23;20099;-73
2022/11/09 05:33:56;;;;;;;6.38;3.15;;;;;;;12.33;65.67;96448.84;6212766;23;20024;-73
2022/11/09 05:36:23;;;;;;;6.57;3.15;;;;;;;12.35;66.16;96444.25;6212319;23;20020;-73
2022/11/09 05:38:51;;;;;;;4.05;3.00;;;;;;;12.35;66.31;96446.84;6211951;23;20024;-73
2022/11/09 05:41:19;;;;;;;3.38;2.83;;;;;;;12.35;66.61;96446.84;6212958;23;20020;-73
2022/11/09 05:43:47;;;;;;;3.65;2.70;;;;;;;12.34;66.74;96454.88;6212383;23;20535;-73
2022/11/09 05:46:16;;;;;;;4.47;2.72;;;;;;;12.35;66.94;96461.72;6213102;23;20020;-73
2022/11/09 05:48:45;;;;;;;3.78;2.83;;;;;;;12.34;67.27;96460.13;6214702;23;20024;-73
2022/11/09 05:51:14;;;;;;;4.93;3.00;;;;;;;12.34;67.31;96460.91;6215185;23;20020;-73
2022/11/09 05:53:42;;;;;;;4.95;3.47;;;;;;;12.34;67.57;96460.91;6215312;23;20025;-73
2022/11/09 05:56:14;;;;;;;5.05;4.25;;;;;;;12.31;68.29;96458.72;6214970;23;20020;-72
2022/11/09 05:58:42;;;;;;;5.00;4.35;;;;;;;12.29;68.62;96462.53;6214691;23;20020;-73
2022/11/09 06:01:12;;;;;;;5.45;4.60;;;;;;;12.24;69.12;96447.41;6214701;23;20460;-73
2022/11/09 06:03:40;;;;;;;5.90;4.32;;;;;;;12.16;69.05;96453.63;6214972;23;20028;-73
2022/11/09 06:06:12;;;;;;;5.32;3.95;;;;;;;12.12;70.18;96456.81;6215095;23;20025;-73
2022/11/09 06:08:40;;;;;;;5.40;4.38;;;;;;;12.09;69.81;96454.56;6214477;23;20107;-73
2022/11/09 06:11:10;;;;;;;8.00;4.93;;;;;;;12.04;70.14;96449.13;6214969;23;20052;-73
2022/11/09 06:13:37;;;;;;;13.43;7.53;;;;;;;11.98;70.49;96452.53;6214991;23;20021;-73
2022/11/09 06:16:06;;;;;;;6.82;4.35;;;;;;;11.92;70.70;96449.69;6214314;23;20073;-73
2022/11/09 06:18:36;;;;;;;4.78;4.30;;;;;;;11.89;71.29;96451.88;6214338;23;20021;-73
2022/11/09 06:21:05;;;;;;;8.57;6.45;;;;;;;11.81;71.39;96439.75;6215001;23;20017;-73
2022/11/09 06:23:34;;;;;;;9.73;7.32;;;;;;;11.73;71.60;96432.06;6215029;23;20035;-73
2022/11/09 06:26:05;;;;;;;16.05;9.30;;;;;;;11.65;71.71;96440.06;6214904;23;20027;-73
2022/11/09 06:28:33;;;;;;;11.88;9.75;;;;;;;11.58;71.79;96429.56;6214338;23;20387;-73
2022/11/09 06:31:02;;;;;;;13.38;9.90;;;;;;;11.51;71.96;96439.97;6214791;23;20044;-73
2022/11/09 06:33:31;;;;;;;12.73;10.10;;;;;;;11.42;72.41;96424.66;6214989;23;20020;-73
2022/11/09 06:35:59;;;;;;;13.18;8.93;;;;;;;11.33;72.75;96426.59;6214514;23;20021;-72
2022/11/09 06:38:26;;;;;;;9.70;7.88;;;;;;;11.27;73.18;96428.16;6214341;23;20023;-73
2022/11/09 06:40:58;;;;;;;8.93;6.57;;;;;;;11.24;74.09;96427.72;6214644;23;20024;-73
2022/11/09 06:43:26;;;;;;;9.25;5.60;;;;;;;11.22;73.94;96432.34;6214855;23;20082;-73
2022/11/09 06:45:54;;;;;;;6.93;5.43;;;;;;;11.23;74.45;96436.56;6214372;23;20020;-73
2022/11/09 06:48:21;;;;;;;8.57;5.22;;;;;;;11.24;74.68;96443.38;6214201;23;20075;-73
2022/11/09 06:50:49;;;;;;;7.70;5.22;;;;;;;11.25;75.42;96442.41;6214606;23;20024;-73
2022/11/09 06:53:17;;;;;;;6.32;5.40;;;;;;;11.28;75.04;96455.91;6214437;23;20021;-73
2022/11/09 06:55:45;;;;;;;8.52;5.53;;;;;;;11.29;75.20;96462.72;6215105;23;20079;-73
2022/11/09 06:58:19;;;;;;;12.63;5.97;;;;;;;11.34;75.47;96464.75;6214857;23;20079;-73
2022/11/09 07:00:47;;;;;;;8.05;6.00;;;;;;;11.38;75.47;96473.03;6214893;23;20395;-73
2022/11/09 07:03:16;;;;;;;8.30;6.07;;;;;;;11.40;75.77;96473.66;6214425;23;20483;-73
2022/11/09 07:05:44;;;;;;;9.30;6.22;;;;;;;11.43;75.98;96468.03;6214436;23;20020;-73
2022/11/09 07:08:13;;;;;;;9.65;7.55;;;;;;;11.46;75.99;96473.69;6213892;23;20103;-73
2022/11/09 07:10:41;;;;;;;11.93;7.70;;;;;;;11.48;76.17;96470.91;6214590;23;20360;-73
2022/11/09 07:13:10;;;;;;;10.38;6.43;;;;;;;11.50;76.20;96463.66;6214165;23;20025;-73
2022/11/09 07:15:39;;;;;;;12.88;7.07;;;;;;;11.52;76.48;96465.13;6214278;23;20023;-73
2022/11/09 07:18:09;;;;;;;7.90;5.30;;;;;;;11.55;76.42;96467.31;6213853;23;20025;-73
2022/11/09 07:20:37;;;;;;;6.28;4.82;;;;;;;11.59;76.38;96466.94;6214355;23;20021;-73
2022/11/09 07:23:05;;;;;;;5.90;4.50;;;;;;;11.60;76.11;96469.38;6214318;23;20024;-73
2022/11/09 07:25:33;;;;;;;5.75;4.97;;;;;;;11.60;76.22;96463.34;6214058;23;20460;-73
2022/11/09 07:28:04;;;;;;;6.05;4.65;;;;;;;11.61;76.75;96471.00;6213614;23;20021;-73
2022/11/09 07:30:32;;;;;;;6.22;5.32;;;;;;;11.64;76.45;96470.59;6213876;23;20039;-73
2022/11/09 07:33:01;;;;;;;5.82;4.95;;;;;;;11.68;76.32;96471.03;6214490;23;20021;-73
2022/11/09 07:35:37;;;;;;;9.32;6.07;;;;;;;11.70;76.14;96469.84;6214314;23;20056;-73
2022/11/09 07:38:05;;;;;;;8.88;6.10;;;;;;;11.72;76.07;96472.28;6213747;23;20471;-73
2022/11/09 07:40:32;;;;;;;8.77;5.63;;;;;;;11.72;76.24;96478.31;6214240;23;20020;-73
2022/11/09 07:43:00;;;;;;;11.13;6.43;;;;;;;11.76;76.33;96478.69;6214205;23;20095;-73
2022/11/09 07:45:28;;;;;;;9.02;5.80;;;;;;;11.81;76.36;96481.56;6213766;23;20461;-73
2022/11/09 07:47:57;;;;;;;6.28;4.05;;;;;;;11.85;76.40;96485.41;6213292;23;20029;-73
2022/11/09 07:50:28;;;;;;;7.35;4.47;;;;;;;11.90;76.46;96480.44;6214196;23;20017;-73
2022/11/09 07:52:56;;;;;;;9.75;4.43;;;;;;;11.92;76.19;96494.13;6216440;23;20111;-73
2022/11/09 07:55:25;;;;;;;6.88;4.43;;;;;;;11.93;76.15;96500.94;6217586;23;20021;-73
2022/11/09 07:57:55;;;;;;;6.13;4.68;;;;;;;11.95;76.55;96493.72;6214380;23;20063;-73
2022/11/09 08:00:23;;;;;;;5.57;3.80;;;;;;;11.98;76.46;96496.97;6214451;23;20027;-73
2022/11/09 08:02:50;;;;;;;4.18;3.78;;;;;;;12.02;76.57;96503.41;6214692;23;20042;-73
2022/11/09 08:05:18;;;;;;;5.32;4.47;;;;;;;12.02;76.46;96506.84;6213962;23;20563;-73
2022/11/09 08:07:47;;;;;;;4.15;3.75;;;;;;;12.03;76.69;96499.81;6213279;23;20019;-73
2022/11/09 08:10:15;;;;;;;3.63;3.20;;;;;;;12.04;76.72;96507.44;6213719;23;20103;-73
2022/11/09 08:12:43;;;;;;;3.88;3.22;;;;;;;12.08;76.56;96507.88;6214129;23;20099;-73
2022/11/09 08:15:11;;;;;;;4.32;3.47;;;;;;;12.08;76.57;96506.06;6214215;23;20334;-73
2022/11/09 08:17:38;;;;;;;3.85;2.67;;;;;;;12.10;76.60;96505.88;6213338;23;20087;-73
2022/11/09 08:20:07;;;;;;;4.32;2.97;;;;;;;12.12;76.72;96511.72;6213744;23;20026;-73
2022/11/09 08:22:41;;;;;;;5.57;3.28;;;;;;;12.13;77.39;96515.94;6214109;23;20101;-73
2022/11/09 08:25:11;;;;;;;3.42;2.22;;;;;;;12.16;77.27;96510.34;6214175;23;20021;-73
2022/11/09 08:27:39;;;;;;;14.27;6.63;;;;;;;12.19;77.01;96509.94;6213457;23;20017;-72
2022/11/09 08:30:11;;;;;;;8.40;4.10;;;;;;;12.23;77.38;96515.59;6213694;23;20020;-73
2022/11/09 08:32:39;;;;;;;5.65;4.43;;;;;;;12.26;77.15;96516.00;6214070;23;20021;-73
2022/11/09 08:35:08;;;;;;;4.00;3.08;;;;;;;12.31;77.10;96524.09;6214021;23;20062;-73
2022/11/09 08:37:36;;;;;;;6.38;3.42;;;;;;;12.33;77.18;96524.72;6214076;23;20021;-73
2022/11/09 08:40:05;;;;;;;10.75;5.72;;;;;;;12.36;77.32;96526.94;6215114;23;20027;-73
2022/11/09 08:42:34;;;;;;;9.23;5.75;;;;;;;12.39;77.41;96540.63;6215764;23;20081;-73
2022/11/09 08:45:02;;;;;;;7.72;4.90;;;;;;;12.42;77.59;96534.97;6215828;23;20027;-73
2022/11/09 08:47:29;;;;;;;7.22;4.90;;;;;;;12.43;77.60;96547.88;6215362;23;20032;-73
2022/11/09 08:49:57;;;;;;;7.07;4.82;;;;;;;12.46;77.55;96557.16;6215307;23;20031;-73
2022/11/09 08:52:24;;;;;;;6.60;3.63;;;;;;;12.49;77.72;96582.94;6215830;23;20028;-73
2022/11/09 08:54:52;;;;;;;5.22;4.18;;;;;;;12.52;77.79;96577.31;6216218;23;20021;-73
2022/11/09 08:57:20;;;;;;;4.15;2.60;;;;;;;12.54;77.98;96572.69;6215889;23;20025;-73
2022/11/09 08:59:49;;;;;;;3.60;2.15;;;;;;;12.57;78.02;96582.75;6215344;23;20020;-73
2022/11/09 09:02:17;;;;;;;3.08;2.10;;;;;;;12.57;77.75;96590.59;6215409;23;20024;-73
2022/11/09 09:04:44;;;;;;;1.77;1.50;;;;;;;12.57;78.06;96598.44;6215238;23;20483;-73
2022/11/09 09:15:19;;;;;;;1.63;1.40;;;;;;;12.59;77.82;96585.97;6248623;22;20257;-81
2022/11/09 09:18:22;;;;;;;3.03;1.20;;;;;;;12.59;78.04;96585.97;6171172;23;20036;-80
2022/11/09 09:21:22;;;;;;;1.42;0.77;;;;;;;12.62;77.44;96582.19;6147404;23;20088;-81
2022/11/09 09:33:48;;;;;;;1.75;1.30;;;;;;;12.67;76.86;96580.59;6222700;22;20456;-80
2022/11/09 09:36:20;;;;;;;2.28;1.48;;;;;;;12.69;76.76;96583.81;6220171;23;20021;-80
2022/11/09 09:38:50;;;;;;;3.38;1.10;;;;;;;12.73;76.98;96587.66;6219660;23;20024;-80
2022/11/09 10:24:38;;;;;;;3.90;1.77;;;;;;;12.95;76.21;96535.19;6216405;23;20078;-81
2022/11/09 10:27:33;;;;;;;1.83;1.30;;;;;;;12.98;75.96;96529.53;6233449;22;20018;-81
2022/11/09 10:30:55;;;;;;;2.42;0.95;;;;;;;13.02;74.93;96525.53;6279796;22;20077;-81
2022/11/09 10:45:14;;;;;;;1.77;0.90;;;;;;;13.51;75.47;96492.97;6279456;22;20526;-81
2022/11/09 10:55:35;;;;;;;1.20;1.08;;;;;;;15.16;73.33;96495.16;6217584;23;20079;-79
2022/11/09 11:05:44;;;;;;;1.00;0.17;;;;;;;16.87;65.55;96499.94;6201390;23;20027;-80
2022/11/09 14:00:13;;;;;;;2.67;1.53;;;;;;;18.04;56.84;96448.38;6226903;22;20049;-79
2022/11/09 15:09:21;;;;;;;2.30;1.48;;;;;;;16.69;64.03;96520.00;6210939;23;20027;-74
2022/11/09 15:11:49;;;;;;;1.60;1.50;;;;;;;16.66;63.58;96519.63;6214426;23;20365;-74
2022/11/09 15:14:25;;;;;;;4.57;1.73;;;;;;;16.60;63.94;96523.16;6214517;23;20319;-74
2022/11/09 15:16:59;;;;;;;11.85;8.40;;;;;;;16.55;63.98;96523.00;6214354;23;20027;-74
2022/11/09 15:19:30;;;;;;;1.35;1.25;;;;;;;16.50;63.41;96525.50;6183984;23;20017;-72
2022/11/09 15:21:58;;;;;;;1.50;1.00;;;;;;;16.42;64.25;96518.69;6184123;23;20495;-72
2022/11/09 15:24:29;;;;;;;2.05;1.13;;;;;;;16.39;64.30;96527.84;6184446;23;20021;-72
2022/11/09 15:26:57;;;;;;;1.35;1.17;;;;;;;16.36;64.32;96530.94;6183950;23;20032;-72
2022/11/09 15:29:30;;;;;;;1.33;1.20;;;;;;;16.33;64.82;96531.34;6184253;23;20029;-72
2022/11/09 15:32:00;;;;;;;1.70;1.20;;;;;;;16.29;65.77;96532.84;6184547;23;20025;-72
2022/11/09 15:34:32;;;;;;;1.33;1.15;;;;;;;16.26;65.76;96535.88;6184729;23;20025;-72
2022/11/09 15:37:00;;;;;;;1.70;1.00;;;;;;;16.23;65.10;96536.34;6184261;23;20043;-72
2022/11/09 15:39:28;;;;;;;2.25;1.20;;;;;;;16.19;65.34;96535.16;6183617;23;20021;-73
2022/11/09 15:41:56;;;;;;;1.63;1.10;;;;;;;16.15;65.75;96521.63;6183911;23;20475;-72
2022/11/09 15:44:24;;;;;;;6.15;1.60;;;;;;;16.12;65.61;96534.44;6183943;23;20028;-73
2022/11/09 15:46:53;;;;;;;2.20;1.50;;;;;;;16.09;65.91;96529.59;6186129;23;20021;-72
2022/11/09 15:49:24;;;;;;;1.88;1.63;;;;;;;16.05;65.86;96537.13;6186993;23;20027;-72
2022/11/09 15:51:52;;;;;;;1.88;1.67;;;;;;;16.00;66.06;96537.75;6188111;23;20260;-72
2022/11/09 15:54:21;;;;;;;1.67;1.38;;;;;;;15.93;66.00;96534.41;6185064;23;20021;-72
2022/11/09 15:56:50;;;;;;;2.60;1.63;;;;;;;15.90;66.53;96531.41;6185008;23;20046;-72
2022/11/09 15:59:23;;;;;;;4.00;2.17;;;;;;;15.87;66.79;96530.00;6184550;23;20424;-72
2022/11/09 16:01:50;;;;;;;;;;;;;;;15.87;66.36;96537.88;6185552;23;20030;-72
2022/11/09 16:04:18;;;;;;;4.40;2.38;;;;;;;15.78;66.49;96526.84;6184872;23;19943;-72
2022/11/09 16:06:46;;;;;;;3.70;3.15;;;;;;;15.74;66.86;96532.75;6184122;23;20025;-72
2022/11/09 16:09:13;;;;;;;3.58;2.78;;;;;;;15.69;67.32;96537.84;6183699;23;20021;-72
2022/11/09 16:11:41;;;;;;;2.50;2.28;;;;;;;15.63;67.56;96544.75;6184104;23;20056;-72
2022/11/09 16:14:10;;;;;;;2.10;1.90;;;;;;;15.60;68.60;96545.19;6184477;23;20021;-72
2022/11/09 16:16:37;;;;;;;3.17;2.40;;;;;;;15.58;68.14;96545.38;6183998;23;20032;-72
2022/11/09 16:19:05;;;;;;;2.60;2.17;;;;;;;15.57;68.47;96543.00;6183424;23;20535;-72
2022/11/09 16:21:33;;;;;;;3.67;3.13;;;;;;;15.55;68.46;96539.78;6184077;23;20025;-72
2022/11/09 16:24:00;;;;;;;4.75;3.80;;;;;;;15.51;69.16;96539.38;6184086;23;20021;-72
2022/11/09 16:26:28;;;;;;;4.45;3.65;;;;;;;15.46;69.39;96547.13;6183550;23;20495;-72
2022/11/09 16:28:55;;;;;;;7.88;6.78;;;;;;;15.39;69.54;96556.84;6187142;23;20031;-72
2022/11/09 16:31:24;;;;;;;8.27;5.55;;;;;;;15.34;69.83;96559.31;6188704;23;20079;-73
2022/11/09 16:34:12;;;;;;;4.90;4.38;;;;;;;15.28;69.99;96557.53;6184657;23;20025;-72
2022/11/09 16:36:39;;;;;;;4.65;4.20;;;;;;;15.22;70.04;96557.38;6184341;23;20021;-72
2022/11/09 16:39:16;;;;;;;4.10;3.70;;;;;;;15.17;70.28;96557.19;6183589;23;20073;-72
2022/11/09 16:41:46;;;;;;;6.00;3.97;;;;;;;15.11;70.48;96560.69;6184044;23;20025;-72
2022/11/09 16:44:15;;;;;;;5.32;4.07;;;;;;;15.07;70.69;96566.59;6183689;23;20021;-72
2022/11/09 16:46:47;;;;;;;5.05;4.43;;;;;;;15.01;71.24;96566.38;6183594;23;20493;-72
2022/11/09 16:49:14;;;;;;;7.47;6.53;;;;;;;14.99;71.02;96576.28;6183317;23;20457;-72
2022/11/09 16:51:42;;;;;;;9.10;6.60;;;;;;;14.97;71.14;96585.41;6183583;23;20488;-72
2022/11/09 16:54:10;;;;;;;6.72;5.85;;;;;;;14.94;71.14;96583.22;6184168;23;20032;-72
2022/11/09 16:56:37;;;;;;;6.32;5.22;;;;;;;14.94;71.52;96585.84;6184153;23;20021;-72
2022/11/09 16:59:05;;;;;;;5.82;4.20;;;;;;;14.92;71.45;96587.88;6184069;23;20021;-72
2022/11/09 17:01:32;;;;;;;5.47;4.50;;;;;;;14.89;71.66;96598.78;6185864;23;20028;-72
2022/11/09 17:04:01;;;;;;;6.18;5.07;;;;;;;14.85;72.08;96595.78;6185602;23;20028;-72
2022/11/09 17:06:29;;;;;;;5.38;4.38;;;;;;;14.82;71.96;96594.38;6184922;23;20025;-73
2022/11/09 17:08:56;;;;;;;5.60;4.47;;;;;;;14.81;72.00;96598.00;6182984;23;20032;-73
2022/11/09 17:11:24;;;;;;;6.25;4.10;;;;;;;14.80;72.00;96596.41;6184597;23;20028;-73
2022/11/09 17:13:56;;;;;;;4.25;3.67;;;;;;;14.79;72.35;96597.41;6184480;23;20029;-73
2022/11/09 17:16:24;;;;;;;6.20;3.70;;;;;;;14.80;72.16;96614.78;6185428;23;20021;-73
2022/11/09 17:18:53;;;;;;;5.47;4.43;;;;;;;14.81;71.98;96613.75;6184587;23;20021;-73
2022/11/09 17:21:23;;;;;;;4.05;3.40;;;;;;;14.81;72.25;96618.22;6185001;23;20469;-73
2022/11/09 17:23:51;;;;;;;6.38;3.88;;;;;;;14.81;71.87;96618.22;6185053;23;20025;-73
2022/11/09 17:26:20;;;;;;;4.85;4.10;;;;;;;14.82;72.24;96631.16;6185389;23;20032;-74
2022/11/09 17:28:47;;;;;;;7.40;5.70;;;;;;;14.83;72.36;96631.94;6184316;23;20020;-74
2022/11/09 17:31:17;;;;;;;10.10;6.82;;;;;;;14.84;72.21;96630.91;6185562;23;20127;-73
2022/11/09 17:33:45;;;;;;;8.48;6.50;;;;;;;14.83;72.57;96637.19;6185798;23;20025;-74
2022/11/09 17:36:14;;;;;;;8.27;6.40;;;;;;;14.83;72.55;96643.25;6185508;23;20021;-73
2022/11/09 17:38:43;;;;;;;6.80;6.15;;;;;;;14.84;73.22;96649.28;6184977;23;20017;-73
2022/11/09 17:41:13;;;;;;;6.75;5.35;;;;;;;14.84;72.53;96646.66;6185307;23;20079;-73
2022/11/09 17:43:42;;;;;;;6.57;5.32;;;;;;;14.85;73.10;96650.94;6184772;23;20100;-73
2022/11/09 17:46:11;;;;;;;6.72;4.30;;;;;;;14.82;72.29;96652.16;6185141;23;20021;-73
2022/11/09 17:48:40;;;;;;;6.82;4.47;;;;;;;14.79;72.17;96654.38;6184556;23;20021;-74
2022/11/09 17:51:08;;;;;;;4.82;4.07;;;;;;;14.80;72.36;96658.59;6186177;23;20025;-76
2022/11/09 17:53:37;;;;;;;8.35;6.38;;;;;;;14.78;72.75;96661.44;6185234;23;20028;-77